Time,TemperatureF,DewpointF,PressureIn,WindDirection,WindDirectionDegrees,WindSpeedMPH,WindSpeedGustMPH,Humidity,HourlyPrecipIn,Conditions,Clouds,dailyrainin,SoftwareType,DateUTC
2013-01-07 00:02:00,37.0,35.0,29.74,NNE,30,0.0,-999.0,92,-99.99,,,-99.99,,2013-01-07 08:02:00,
2013-01-07 00:11:00,37.0,35.0,29.74,NNE,30,0.0,-999.0,92,-99.99,,,-99.99,,2013-01-07 08:11:00,
2013-01-07 00:22:00,37.0,35.0,29.74,NNE,30,0.0,-999.0,93,-99.99,,,-99.99,,2013-01-07 08:22:00,
2013-01-07 00:32:00,38.0,36.0,29.74,NNE,30,0.0,-999.0,93,-99.99,,,-99.99,,2013-01-07 08:32:00,
2013-01-07 00:42:00,38.0,36.0,29.74,NNE,30,0.0,-999.0,93,-99.99,,,-99.99,,2013-01-07 08:42:00,
2013-01-07 00:52:00,38.0,36.0,29.74,NNE,29,0.0,-999.0,92,-99.99,,,-99.99,,2013-01-07 08:52:00,
2013-01-07 01:02:00,38.0,36.0,29.74,NNE,29,0.0,-999.0,91,-99.99,,,-99.99,,2013-01-07 09:02:00,
2013-01-07 01:12:00,38.0,36.0,29.74,NNE,29,0.0,-999.0,91,-99.99,,,-99.99,,2013-01-07 09:12:00,
2013-01-07 01:22:00,38.0,36.0,29.74,NNE,22,0.0,-999.0,92,-99.99,,,-99.99,,2013-01-07 09:22:00,
2013-01-07 01:32:00,38.0,36.0,29.74,North,9,1.0,-999.0,93,-99.99,,,-99.99,,2013-01-07 09:32:00,
2013-01-07 01:42:00,38.0,36.0,29.74,North,9,1.0,-999.0,93,-99.99,,,-99.99,,2013-01-07 09:42:00,
2013-01-07 01:52:00,39.0,37.0,29.74,NNW,338,0.0,-999.0,93,-99.99,,,-99.99,,2013-01-07 09:52:00,
2013-01-07 02:02:00,39.0,37.0,29.74,NW,314,0.0,-999.0,93,-99.99,,,-99.99,,2013-01-07 10:02:00,
2013-01-07 02:12:00,39.0,37.0,29.75,West,263,1.0,-999.0,94,-99.99,,,-99.99,,2013-01-07 10:12:00,
2013-01-07 02:22:00,39.0,37.0,29.75,West,263,1.0,-999.0,94,-99.99,,,-99.99,,2013-01-07 10:22:00,
2013-01-07 02:32:00,39.0,37.0,29.75,West,275,0.0,-999.0,94,-99.99,,,-99.99,,2013-01-07 10:32:00,
2013-01-07 02:42:00,39.0,37.0,29.75,West,275,0.0,-999.0,94,-99.99,,,-99.99,,2013-01-07 10:42:00,
2013-01-07 02:52:00,39.0,37.0,29.74,West,272,0.0,-999.0,94,-99.99,,,-99.99,,2013-01-07 10:52:00,
2013-01-07 03:02:00,38.0,36.0,29.74,SSW,205,2.0,-999.0,93,-99.99,,,-99.99,,2013-01-07 11:02:00,
2013-01-07 03:12:00,38.0,36.0,29.74,SSW,205,2.0,-999.0,93,-99.99,,,-99.99,,2013-01-07 11:12:00,
2013-01-07 03:22:00,38.0,36.0,29.75,SSW,207,1.0,-999.0,94,-99.99,,,-99.99,,2013-01-07 11:22:00,
2013-01-07 03:32:00,38.0,37.0,29.74,SSE,163,0.0,-999.0,95,-99.99,,,-99.99,,2013-01-07 11:32:00,
2013-01-07 03:43:00,38.0,37.0,29.74,SSE,163,0.0,-999.0,95,-99.99,,,-99.99,,2013-01-07 11:43:00,
2013-01-07 03:52:00,38.0,37.0,29.75,SSE,164,0.0,-999.0,95,-99.99,,,-99.99,,2013-01-07 11:52:00,
2013-01-07 04:02:00,38.0,37.0,29.76,SSE,164,0.0,-999.0,95,-99.99,,,-99.99,,2013-01-07 12:02:00,
2013-01-07 04:12:00,39.0,38.0,29.76,SSE,165,0.0,-999.0,95,-99.99,,,-99.99,,2013-01-07 12:12:00,
2013-01-07 04:22:00,39.0,38.0,29.76,SSE,165,0.0,-999.0,95,-99.99,,,-99.99,,2013-01-07 12:22:00,
2013-01-07 04:32:00,39.0,38.0,29.76,SSE,165,0.0,-999.0,95,-99.99,,,-99.99,,2013-01-07 12:32:00,
2013-01-07 04:43:00,39.0,38.0,29.76,SSE,165,0.0,-999.0,95,-99.99,,,-99.99,,2013-01-07 12:43:00,
2013-01-07 04:52:00,39.0,37.0,29.75,SSE,165,0.0,-999.0,94,-99.99,,,-99.99,,2013-01-07 12:52:00,
2013-01-07 05:02:00,39.0,37.0,29.75,SSE,165,0.0,-999.0,94,-99.99,,,-99.99,,2013-01-07 13:02:00,
2013-01-07 05:12:00,39.0,37.0,29.75,SSE,165,0.0,-999.0,94,-99.99,,,-99.99,,2013-01-07 13:12:00,
2013-01-07 05:22:00,39.0,37.0,29.75,SSE,166,0.0,-999.0,93,-99.99,,,-99.99,,2013-01-07 13:22:00,
2013-01-07 05:32:00,40.0,38.0,29.75,SSE,166,0.0,-999.0,92,-99.99,,,-99.99,,2013-01-07 13:32:00,
2013-01-07 05:42:00,40.0,38.0,29.75,SSE,166,0.0,-999.0,92,-99.99,,,-99.99,,2013-01-07 13:42:00,
2013-01-07 05:52:00,40.0,38.0,29.76,ENE,71,0.0,-999.0,92,-99.99,,,-99.99,,2013-01-07 13:52:00,
2013-01-07 06:03:00,40.0,38.0,29.77,NNE,24,0.0,-999.0,91,-99.99,,,-99.99,,2013-01-07 14:03:00,
2013-01-07 06:12:00,40.0,38.0,29.77,NNE,24,0.0,-999.0,91,-99.99,,,-99.99,,2013-01-07 14:12:00,
2013-01-07 06:22:00,40.0,38.0,29.77,NNE,24,0.0,-999.0,91,-99.99,,,-99.99,,2013-01-07 14:22:00,
2013-01-07 06:32:00,40.0,38.0,29.77,NW,317,0.0,-999.0,91,-99.99,,,-99.99,,2013-01-07 14:32:00,
2013-01-07 06:43:00,40.0,38.0,29.77,NW,317,0.0,-999.0,91,-99.99,,,-99.99,,2013-01-07 14:43:00,
2013-01-07 06:53:00,40.0,37.0,29.77,West,270,0.0,-999.0,90,-99.99,,,-99.99,,2013-01-07 14:53:00,
2013-01-07 07:02:00,39.0,36.0,29.77,SSW,192,0.0,-999.0,90,-99.99,,,-99.99,,2013-01-07 15:02:00,
2013-01-07 07:12:00,39.0,36.0,29.77,SSW,192,0.0,-999.0,90,-99.99,,,-99.99,,2013-01-07 15:12:00,
2013-01-07 07:22:00,39.0,36.0,29.77,SSW,195,2.0,-999.0,90,-99.99,,,-99.99,,2013-01-07 15:22:00,
2013-01-07 07:33:00,39.0,36.0,29.78,South,177,0.0,-999.0,89,-99.99,,,-99.99,,2013-01-07 15:33:00,
2013-01-07 07:42:00,39.0,36.0,29.78,South,177,0.0,-999.0,89,-99.99,,,-99.99,,2013-01-07 15:42:00,
2013-01-07 07:52:00,39.0,36.0,29.78,South,171,3.0,-999.0,89,-99.99,,,-99.99,,2013-01-07 15:52:00,
2013-01-07 08:02:00,40.0,36.0,29.79,South,172,3.0,-999.0,87,-99.99,,,-99.99,,2013-01-07 16:02:00,
2013-01-07 08:12:00,40.0,36.0,29.79,South,172,3.0,-999.0,87,-99.99,,,-99.99,,2013-01-07 16:12:00,
2013-01-07 08:22:00,41.0,37.0,29.79,South,169,3.0,-999.0,85,-99.99,,,-99.99,,2013-01-07 16:22:00,
2013-01-07 08:33:00,43.0,38.0,29.79,South,178,5.0,-999.0,81,-99.99,,,-99.99,,2013-01-07 16:33:00,
2013-01-07 08:43:00,43.0,38.0,29.79,South,178,5.0,-999.0,81,-99.99,,,-99.99,,2013-01-07 16:43:00,
2013-01-07 08:52:00,45.0,38.0,29.80,South,181,1.0,-999.0,77,-99.99,,,-99.99,,2013-01-07 16:52:00,
2013-01-07 09:02:00,45.0,38.0,29.80,South,181,1.0,-999.0,77,-99.99,,,-99.99,,2013-01-07 17:02:00,
2013-01-07 09:12:00,45.0,38.0,29.80,South,181,1.0,-999.0,77,-99.99,,,-99.99,,2013-01-07 17:12:00,
2013-01-07 09:32:00,47.0,38.0,29.79,SSE,150,5.0,-999.0,71,-99.99,,,-99.99,,2013-01-07 17:32:00,
2013-01-07 09:42:00,47.0,38.0,29.79,SSE,150,5.0,-999.0,71,-99.99,,,-99.99,,2013-01-07 17:42:00,
2013-01-07 09:52:00,47.0,37.0,29.79,SSE,152,6.0,-999.0,69,-99.99,,,-99.99,,2013-01-07 17:52:00,
2013-01-07 10:02:00,47.0,37.0,29.79,SSE,152,6.0,-999.0,69,-99.99,,,-99.99,,2013-01-07 18:02:00,
2013-01-07 10:12:00,47.0,37.0,29.79,SSE,152,6.0,-999.0,69,-99.99,,,-99.99,,2013-01-07 18:12:00,
2013-01-07 10:23:00,48.0,38.0,29.81,SSE,160,0.0,-999.0,67,-99.99,,,-99.99,,2013-01-07 18:23:00,
2013-01-07 10:32:00,48.0,38.0,29.80,South,170,10.0,-999.0,68,-99.99,,,-99.99,,2013-01-07 18:32:00,
2013-01-07 10:42:00,48.0,38.0,29.80,South,170,10.0,-999.0,68,-99.99,,,-99.99,,2013-01-07 18:42:00,
2013-01-07 10:52:00,49.0,38.0,29.81,SSE,163,4.0,-999.0,65,-99.99,,,-99.99,,2013-01-07 18:52:00,
2013-01-07 11:03:00,49.0,37.0,29.82,NNW,334,0.0,-999.0,64,-99.99,,,-99.99,,2013-01-07 19:03:00,
2013-01-07 11:12:00,49.0,37.0,29.82,NNW,334,0.0,-999.0,64,-99.99,,,-99.99,,2013-01-07 19:12:00,
2013-01-07 11:22:00,50.0,38.0,29.82,SE,129,1.0,-999.0,63,-99.99,,,-99.99,,2013-01-07 19:22:00,
2013-01-07 11:33:00,51.0,37.0,29.81,SE,125,0.0,-999.0,59,-99.99,,,-99.99,,2013-01-07 19:33:00,
2013-01-07 11:42:00,51.0,37.0,29.81,SE,125,0.0,-999.0,59,-99.99,,,-99.99,,2013-01-07 19:42:00,
2013-01-07 11:52:00,51.0,38.0,29.81,ENE,64,1.0,-999.0,62,-99.99,,,-99.99,,2013-01-07 19:52:00,
2013-01-07 12:02:00,52.0,38.0,29.80,ESE,118,0.0,-999.0,58,-99.99,,,-99.99,,2013-01-07 20:02:00,
2013-01-07 12:12:00,52.0,38.0,29.80,ESE,118,0.0,-999.0,58,-99.99,,,-99.99,,2013-01-07 20:12:00,
2013-01-07 12:22:00,52.0,34.0,29.80,ESE,118,0.0,-999.0,51,-99.99,,,-99.99,,2013-01-07 20:22:00,
2013-01-07 12:33:00,53.0,37.0,29.78,NNE,33,1.0,-999.0,55,-99.99,,,-99.99,,2013-01-07 20:33:00,
2013-01-07 12:42:00,53.0,37.0,29.78,NNE,33,1.0,-999.0,55,-99.99,,,-99.99,,2013-01-07 20:42:00,
2013-01-07 12:52:00,52.0,38.0,29.76,SE,138,1.0,-999.0,59,-99.99,,,-99.99,,2013-01-07 20:52:00,
2013-01-07 13:02:00,53.0,40.0,29.75,East,101,1.0,-999.0,61,-99.99,,,-99.99,,2013-01-07 21:02:00,
2013-01-07 13:12:00,53.0,40.0,29.75,East,101,1.0,-999.0,61,-99.99,,,-99.99,,2013-01-07 21:12:00,
2013-01-07 13:22:00,53.0,40.0,29.75,East,101,1.0,-999.0,61,-99.99,,,-99.99,,2013-01-07 21:22:00,
2013-01-07 13:32:00,52.0,41.0,29.75,NNE,12,0.0,-999.0,65,-99.99,,,-99.99,,2013-01-07 21:32:00,
2013-01-07 13:43:00,52.0,41.0,29.75,NNE,12,0.0,-999.0,65,-99.99,,,-99.99,,2013-01-07 21:43:00,
2013-01-07 13:53:00,53.0,39.0,29.75,North,9,1.0,-999.0,60,-99.99,,,-99.99,,2013-01-07 21:53:00,
2013-01-07 14:02:00,53.0,41.0,29.75,NE,38,2.0,-999.0,64,-99.99,,,-99.99,,2013-01-07 22:02:00,
2013-01-07 14:12:00,53.0,41.0,29.75,NE,38,2.0,-999.0,64,-99.99,,,-99.99,,2013-01-07 22:12:00,
2013-01-07 14:22:00,51.0,41.0,29.74,North,355,3.0,-999.0,69,-99.99,,,-99.99,,2013-01-07 22:22:00,
2013-01-07 14:33:00,50.0,41.0,29.74,NNW,338,1.0,-999.0,72,-99.99,,,-99.99,,2013-01-07 22:33:00,
2013-01-07 14:42:00,50.0,41.0,29.74,NNW,338,1.0,-999.0,72,-99.99,,,-99.99,,2013-01-07 22:42:00,
2013-01-07 14:52:00,51.0,41.0,29.74,WNW,293,1.0,-999.0,69,-99.99,,,-99.99,,2013-01-07 22:52:00,
2013-01-07 15:02:00,52.0,41.0,29.74,WNW,289,0.0,-999.0,65,-99.99,,,-99.99,,2013-01-07 23:02:00,
2013-01-07 15:12:00,52.0,41.0,29.74,WNW,289,0.0,-999.0,65,-99.99,,,-99.99,,2013-01-07 23:12:00,
2013-01-07 15:22:00,52.0,41.0,29.74,NW,309,1.0,-999.0,66,-99.99,,,-99.99,,2013-01-07 23:22:00,
2013-01-07 15:32:00,53.0,38.0,29.74,SSW,207,0.0,-999.0,57,-99.99,,,-99.99,,2013-01-07 23:32:00,
2013-01-07 15:42:00,53.0,38.0,29.74,SSW,207,0.0,-999.0,57,-99.99,,,-99.99,,2013-01-07 23:42:00,
2013-01-07 15:52:00,53.0,38.0,29.74,SSW,207,0.0,-999.0,57,-99.99,,,-99.99,,2013-01-07 23:52:00,
2013-01-07 16:02:00,53.0,38.0,29.74,SSW,207,0.0,-999.0,57,-99.99,,,-99.99,,2013-01-08 00:02:00,
2013-01-07 16:22:00,51.0,38.0,29.74,North,355,0.0,-999.0,61,-99.99,,,-99.99,,2013-01-08 00:22:00,
2013-01-07 16:32:00,52.0,38.0,29.74,South,183,1.0,-999.0,59,-99.99,,,-99.99,,2013-01-08 00:32:00,
2013-01-07 16:42:00,52.0,38.0,29.74,South,183,1.0,-999.0,59,-99.99,,,-99.99,,2013-01-08 00:42:00,
2013-01-07 16:52:00,52.0,35.0,29.74,East,92,1.0,-999.0,53,-99.99,,,-99.99,,2013-01-08 00:52:00,
2013-01-07 17:02:00,51.0,35.0,29.73,SE,146,0.0,-999.0,54,-99.99,,,-99.99,,2013-01-08 01:02:00,
2013-01-07 17:12:00,51.0,35.0,29.73,SE,146,0.0,-999.0,54,-99.99,,,-99.99,,2013-01-08 01:12:00,
2013-01-07 17:22:00,51.0,37.0,29.72,SSE,165,1.0,-999.0,59,-99.99,,,-99.99,,2013-01-08 01:22:00,
2013-01-07 17:32:00,50.0,38.0,29.72,SSE,167,0.0,-999.0,63,-99.99,,,-99.99,,2013-01-08 01:32:00,
2013-01-07 17:42:00,50.0,38.0,29.72,SSE,167,0.0,-999.0,63,-99.99,,,-99.99,,2013-01-08 01:42:00,
2013-01-07 17:52:00,49.0,37.0,29.72,South,180,1.0,-999.0,64,-99.99,,,-99.99,,2013-01-08 01:52:00,
2013-01-07 18:02:00,49.0,37.0,29.72,SSE,151,0.0,-999.0,64,-99.99,,,-99.99,,2013-01-08 02:02:00,
2013-01-07 18:12:00,49.0,37.0,29.72,SSE,151,0.0,-999.0,64,-99.99,,,-99.99,,2013-01-08 02:12:00,
2013-01-07 18:22:00,49.0,38.0,29.73,SSE,151,0.0,-999.0,65,-99.99,,,-99.99,,2013-01-08 02:22:00,
2013-01-07 18:32:00,49.0,39.0,29.73,SSE,150,0.0,-999.0,69,-99.99,,,-99.99,,2013-01-08 02:32:00,
2013-01-07 18:42:00,49.0,39.0,29.73,SSE,150,0.0,-999.0,69,-99.99,,,-99.99,,2013-01-08 02:42:00,
2013-01-07 18:52:00,48.0,38.0,29.73,SSE,155,0.0,-999.0,67,-99.99,,,-99.99,,2013-01-08 02:52:00,
2013-01-07 19:02:00,48.0,38.0,29.73,SE,136,1.0,-999.0,67,-99.99,,,-99.99,,2013-01-08 03:02:00,
2013-01-07 19:12:00,48.0,38.0,29.73,SE,136,1.0,-999.0,67,-99.99,,,-99.99,,2013-01-08 03:12:00,
2013-01-07 19:22:00,48.0,38.0,29.73,ESE,123,0.0,-999.0,69,-99.99,,,-99.99,,2013-01-08 03:22:00,
2013-01-07 19:32:00,48.0,39.0,29.73,SSE,154,2.0,-999.0,71,-99.99,,,-99.99,,2013-01-08 03:32:00,
2013-01-07 19:42:00,48.0,39.0,29.73,SSE,154,2.0,-999.0,71,-99.99,,,-99.99,,2013-01-08 03:42:00,
2013-01-07 19:52:00,48.0,39.0,29.73,SSE,163,0.0,-999.0,72,-99.99,,,-99.99,,2013-01-08 03:52:00,
2013-01-07 20:02:00,48.0,39.0,29.73,SSE,161,4.0,-999.0,71,-99.99,,,-99.99,,2013-01-08 04:02:00,
2013-01-07 20:12:00,48.0,39.0,29.73,SSE,161,4.0,-999.0,71,-99.99,,,-99.99,,2013-01-08 04:12:00,
2013-01-07 20:22:00,48.0,39.0,29.73,SSE,154,5.0,-999.0,70,-99.99,,,-99.99,,2013-01-08 04:22:00,
2013-01-07 20:32:00,48.0,39.0,29.72,SSE,157,0.0,-999.0,70,-99.99,,,-99.99,,2013-01-08 04:32:00,
2013-01-07 20:42:00,48.0,39.0,29.72,SSE,157,0.0,-999.0,70,-99.99,,,-99.99,,2013-01-08 04:42:00,
2013-01-07 20:52:00,49.0,39.0,29.73,SSE,152,0.0,-999.0,69,-99.99,,,-99.99,,2013-01-08 04:52:00,
2013-01-07 21:03:00,49.0,39.0,29.73,SSE,153,1.0,-999.0,69,-99.99,,,-99.99,,2013-01-08 05:03:00,
2013-01-07 21:12:00,49.0,39.0,29.73,SSE,153,1.0,-999.0,69,-99.99,,,-99.99,,2013-01-08 05:12:00,
2013-01-07 21:22:00,48.0,39.0,29.73,SSE,153,0.0,-999.0,70,-99.99,,,-99.99,,2013-01-08 05:22:00,
2013-01-07 21:33:00,47.0,38.0,29.73,SSE,159,0.0,-999.0,72,-99.99,,,-99.99,,2013-01-08 05:33:00,
2013-01-07 21:42:00,47.0,38.0,29.73,SSE,159,0.0,-999.0,72,-99.99,,,-99.99,,2013-01-08 05:42:00,
2013-01-07 21:52:00,48.0,40.0,29.73,SSE,161,0.0,-999.0,73,-99.99,,,-99.99,,2013-01-08 05:52:00,
2013-01-07 22:02:00,48.0,39.0,29.73,SSE,163,0.0,-999.0,72,-99.99,,,-99.99,,2013-01-08 06:02:00,
2013-01-07 22:11:00,48.0,39.0,29.73,SSE,163,0.0,-999.0,72,-99.99,,,-99.99,,2013-01-08 06:11:00,
2013-01-07 22:22:00,49.0,40.0,29.73,SSE,147,0.0,-999.0,72,-99.99,,,-99.99,,2013-01-08 06:22:00,
2013-01-07 22:32:00,49.0,40.0,29.73,SSE,150,1.0,-999.0,71,-99.99,,,-99.99,,2013-01-08 06:32:00,
2013-01-07 22:42:00,49.0,40.0,29.73,SSE,150,1.0,-999.0,71,-99.99,,,-99.99,,2013-01-08 06:42:00,
2013-01-07 22:52:00,49.0,40.0,29.74,SSE,150,0.0,-999.0,70,-99.99,,,-99.99,,2013-01-08 06:52:00,
2013-01-07 23:02:00,49.0,40.0,29.74,SSE,154,1.0,-999.0,71,-99.99,,,-99.99,,2013-01-08 07:02:00,
2013-01-07 23:11:00,49.0,40.0,29.74,SSE,154,1.0,-999.0,71,-99.99,,,-99.99,,2013-01-08 07:11:00,
2013-01-07 23:22:00,50.0,41.0,29.73,SSE,155,4.0,-999.0,70,-99.99,,,-99.99,,2013-01-08 07:22:00,
2013-01-07 23:32:00,50.0,41.0,29.73,SSE,153,4.0,-999.0,70,-99.99,,,-99.99,,2013-01-08 07:32:00,
2013-01-07 23:42:00,50.0,41.0,29.73,SSE,153,4.0,-999.0,70,-99.99,,,-99.99,,2013-01-08 07:42:00,
2013-01-07 23:52:00,49.0,40.0,29.73,South,173,5.0,-999.0,71,-99.99,,,-99.99,,2013-01-08 07:52:00,